createdAt,value
2023-03-19T00:00:46.874Z,79.79
2023-03-19T00:03:16.043Z,79.82
2023-03-19T00:05:53.271Z,79.89
2023-03-19T00:08:22.865Z,79.79
2023-03-19T00:10:52.962Z,79.92
2023-03-19T00:13:21.759Z,79.96
2023-03-19T00:15:52.398Z,80.03
2023-03-19T00:18:23.655Z,79.95
2023-03-19T00:20:56.223Z,80.04
2023-03-19T00:23:25.883Z,80.09
2023-03-19T00:25:56.824Z,80.08
2023-03-19T00:28:31.069Z,80.07
2023-03-19T00:31:15.379Z,80.18
2023-03-19T00:33:44.142Z,80.30
2023-03-19T00:36:12.985Z,80.25
2023-03-19T00:38:43.934Z,80.29
2023-03-19T00:41:13.081Z,80.42
2023-03-19T00:43:41.432Z,80.47
2023-03-19T00:46:09.927Z,80.44
2023-03-19T00:48:38.400Z,80.47
2023-03-19T00:51:08.800Z,80.36
2023-03-19T00:53:42.357Z,80.06
2023-03-19T00:56:12.775Z,80.12
2023-03-19T00:58:42.522Z,80.11
2023-03-19T01:01:13.052Z,79.91
2023-03-19T01:03:41.890Z,79.94
2023-03-19T01:06:10.370Z,79.81
2023-03-19T01:08:41.764Z,79.95
2023-03-19T01:11:14.854Z,79.98
2023-03-19T01:13:43.942Z,79.68
2023-03-19T01:16:12.969Z,79.84
2023-03-19T01:18:41.639Z,79.68
2023-03-19T01:21:10.835Z,79.43
2023-03-19T01:23:46.128Z,79.64
2023-03-19T01:26:17.138Z,79.46
2023-03-19T01:28:48.447Z,79.46
2023-03-19T01:31:17.327Z,79.32
2023-03-19T01:34:15.711Z,79.18
2023-03-19T01:36:51.255Z,79.24
2023-03-19T01:39:27.813Z,79.16
2023-03-19T01:42:01.991Z,79.14
2023-03-19T01:44:38.574Z,79.02
2023-03-19T01:47:32.072Z,79.04
2023-03-19T01:50:32.545Z,79.16
2023-03-19T01:53:33.910Z,79.04
2023-03-19T01:56:16.259Z,79.21
2023-03-19T01:59:23.513Z,79.20
2023-03-19T02:02:14.147Z,79.20
2023-03-19T02:04:44.133Z,79.13
2023-03-19T02:07:13.979Z,79.30
2023-03-19T02:09:44.118Z,79.45
2023-03-19T02:12:12.743Z,79.55
2023-03-19T02:14:47.528Z,79.44
2023-03-19T02:17:16.103Z,79.47
2023-03-19T02:19:57.701Z,79.56
2023-03-19T02:22:32.156Z,79.62
2023-03-19T02:25:07.385Z,79.64
2023-03-19T02:27:36.363Z,79.79
2023-03-19T02:30:41.362Z,79.84
2023-03-19T02:33:13.971Z,80.08
2023-03-19T02:35:46.885Z,80.07
2023-03-19T02:38:15.895Z,80.14
2023-03-19T02:41:06.958Z,80.07
2023-03-19T02:43:36.964Z,80.02
2023-03-19T02:46:07.624Z,79.96
2023-03-19T02:48:39.046Z,80.15
2023-03-19T02:51:08.743Z,80.20
2023-03-19T02:53:43.241Z,80.23
2023-03-19T02:56:13.144Z,80.39
2023-03-19T02:58:42.093Z,80.32
2023-03-19T03:01:10.504Z,80.43
2023-03-19T03:03:39.503Z,80.45
2023-03-19T03:06:07.849Z,80.51
2023-03-19T03:08:39.014Z,80.47
2023-03-19T03:11:08.007Z,80.57
2023-03-19T03:13:42.354Z,80.48
2023-03-19T03:16:10.571Z,80.41
2023-03-19T03:18:38.813Z,80.40
2023-03-19T03:21:07.574Z,80.39
2023-03-19T03:23:42.182Z,80.26
2023-03-19T03:26:10.553Z,80.20
2023-03-19T03:28:39.594Z,80.28
2023-03-19T03:31:09.580Z,80.29
2023-03-19T03:33:39.767Z,80.35
2023-03-19T03:36:08.676Z,80.28
2023-03-19T03:38:37.153Z,80.34
2023-03-19T03:41:09.668Z,80.31
2023-03-19T03:43:39.818Z,80.31
2023-03-19T03:46:10.115Z,80.37
2023-03-19T03:48:41.779Z,80.59
2023-03-19T03:51:10.359Z,80.67
2023-03-19T03:53:45.535Z,81.01
2023-03-19T03:56:14.478Z,81.23
2023-03-19T03:58:43.220Z,81.18
2023-03-19T04:01:18.130Z,81.30
2023-03-19T04:03:47.831Z,81.32
2023-03-19T04:06:17.726Z,81.23
2023-03-19T04:08:47.279Z,81.45
2023-03-19T04:11:16.127Z,81.53
2023-03-19T04:13:49.431Z,81.67
2023-03-19T04:16:17.861Z,81.80
2023-03-19T04:18:46.582Z,81.95
2023-03-19T04:21:14.890Z,82.17
2023-03-19T04:23:43.510Z,82.14
2023-03-19T04:26:12.376Z,82.24
2023-03-19T04:28:43.632Z,82.19
2023-03-19T04:31:12.631Z,82.38
2023-03-19T04:33:45.905Z,82.49
2023-03-19T04:36:14.132Z,82.50
2023-03-19T04:38:42.506Z,82.51
2023-03-19T04:41:36.914Z,82.59
2023-03-19T04:44:16.969Z,82.76
2023-03-19T04:46:46.506Z,82.92
2023-03-19T04:49:15.989Z,82.77
2023-03-19T04:51:44.767Z,82.97
2023-03-19T04:54:13.357Z,83.10
2023-03-19T04:56:42.278Z,83.28
2023-03-19T04:59:15.890Z,83.33
2023-03-19T05:01:45.421Z,83.33
2023-03-19T05:04:14.689Z,83.33
2023-03-19T05:06:45.066Z,83.30
2023-03-19T05:09:13.902Z,83.40
2023-03-19T05:11:42.956Z,83.34
2023-03-19T05:14:15.592Z,83.44
2023-03-19T05:17:11.321Z,83.54
2023-03-19T05:19:53.358Z,83.52
2023-03-19T05:22:22.641Z,83.47
2023-03-19T05:24:51.123Z,83.55
2023-03-19T05:27:19.495Z,83.59
2023-03-19T05:30:01.722Z,83.65
2023-03-19T05:32:48.063Z,83.87
2023-03-19T05:35:25.104Z,83.94
2023-03-19T05:37:54.089Z,83.80
2023-03-19T05:40:23.432Z,83.98
2023-03-19T05:42:52.475Z,83.93
2023-03-19T05:45:27.484Z,83.77
2023-03-19T05:47:59.300Z,83.86
2023-03-19T05:50:27.852Z,84.05
2023-03-19T05:53:19.828Z,84.04
2023-03-19T05:56:01.686Z,84.15
2023-03-19T05:58:31.980Z,83.93
2023-03-19T06:01:00.749Z,83.87
2023-03-19T06:03:29.439Z,83.81
2023-03-19T06:06:02.019Z,83.82
2023-03-19T06:08:43.370Z,83.70
2023-03-19T06:11:39.650Z,83.59
2023-03-19T06:14:28.192Z,83.49
2023-03-19T06:17:15.117Z,83.25
2023-03-19T06:19:43.434Z,83.12
2023-03-19T06:22:12.234Z,82.95
2023-03-19T06:24:40.640Z,82.68
2023-03-19T06:27:11.307Z,82.76
2023-03-19T06:29:41.775Z,82.55
2023-03-19T06:32:19.252Z,81.82
2023-03-19T06:34:49.518Z,81.76
2023-03-19T06:37:19.007Z,81.47
2023-03-19T06:39:49.862Z,80.74
2023-03-19T06:42:18.219Z,80.56
2023-03-19T06:44:46.570Z,80.34
2023-03-19T06:47:15.737Z,79.72
2023-03-19T06:49:44.294Z,79.46
2023-03-19T06:52:12.553Z,79.36
2023-03-19T06:54:41.289Z,78.58
2023-03-19T06:57:09.874Z,77.65
2023-03-19T06:59:38.489Z,76.75
2023-03-19T07:02:08.394Z,76.00
2023-03-19T07:04:37.934Z,75.75
2023-03-19T07:07:06.614Z,75.56
2023-03-19T07:09:35.134Z,74.86
2023-03-19T07:12:06.106Z,73.49
2023-03-19T07:14:37.718Z,72.28
2023-03-19T07:17:08.024Z,71.65
2023-03-19T07:19:45.869Z,70.79
2023-03-19T07:22:14.130Z,70.01
2023-03-19T07:24:42.620Z,69.57
2023-03-19T07:27:12.367Z,69.11
2023-03-19T07:29:40.744Z,68.55
2023-03-19T07:32:10.870Z,68.02
2023-03-19T07:34:41.804Z,67.58
2023-03-19T07:37:11.052Z,67.15
2023-03-19T07:39:39.963Z,66.78
2023-03-19T07:42:08.264Z,66.43
2023-03-19T07:44:36.610Z,65.86
2023-03-19T07:47:16.061Z,65.65
2023-03-19T07:49:51.668Z,65.50
2023-03-19T07:52:19.829Z,65.33
2023-03-19T07:54:48.379Z,65.19
2023-03-19T07:57:16.771Z,64.78
2023-03-19T07:59:45.697Z,64.20
2023-03-19T08:02:15.190Z,63.95
2023-03-19T08:04:43.934Z,63.62
2023-03-19T08:07:14.233Z,62.85
2023-03-19T08:09:42.917Z,62.09
2023-03-19T08:12:11.621Z,61.34
2023-03-19T08:14:47.473Z,60.98
2023-03-19T08:17:16.150Z,60.45
2023-03-19T08:19:44.510Z,60.00
2023-03-19T08:22:15.741Z,59.36
2023-03-19T08:24:44.201Z,58.91
2023-03-19T08:27:12.510Z,58.28
2023-03-19T08:29:40.718Z,57.72
2023-03-19T08:32:09.286Z,57.12
2023-03-19T08:34:40.710Z,56.35
2023-03-19T08:37:08.910Z,55.58
2023-03-19T08:39:37.163Z,55.59
2023-03-19T08:42:06.131Z,55.37
2023-03-19T08:44:35.241Z,55.65
2023-03-19T08:47:04.250Z,56.09
2023-03-19T08:49:34.254Z,56.10
2023-03-19T08:52:02.586Z,56.42
2023-03-19T08:54:31.119Z,56.51
2023-03-19T08:57:01.284Z,55.97
2023-03-19T08:59:31.446Z,55.34
2023-03-19T09:02:01.178Z,55.15
2023-03-19T09:04:30.296Z,54.92
2023-03-19T09:06:58.721Z,54.94
2023-03-19T09:09:28.160Z,54.77
2023-03-19T09:11:58.486Z,53.88
2023-03-19T09:14:27.390Z,53.06
2023-03-19T09:16:55.862Z,53.20
2023-03-19T09:19:24.835Z,53.20
2023-03-19T09:21:55.793Z,52.89
2023-03-19T09:24:24.561Z,52.72
2023-03-19T09:26:53.084Z,52.50
2023-03-19T09:29:21.946Z,52.02
2023-03-19T09:31:52.880Z,51.47
2023-03-19T09:34:21.347Z,50.99
2023-03-19T09:36:49.894Z,50.24
2023-03-19T09:39:18.425Z,49.68
2023-03-19T09:42:03.793Z,49.07
2023-03-19T09:44:38.315Z,48.19
2023-03-19T09:47:29.780Z,48.24
2023-03-19T09:50:02.248Z,47.85
2023-03-19T09:52:41.535Z,47.67
2023-03-19T09:55:26.243Z,46.34
2023-03-19T09:57:56.493Z,45.80
2023-03-19T10:00:30.309Z,45.86
2023-03-19T10:03:05.528Z,45.65
2023-03-19T10:05:57.265Z,45.42
2023-03-19T10:08:43.079Z,45.01
2023-03-19T10:11:36.664Z,45.17
2023-03-19T10:14:17.281Z,44.94
2023-03-19T10:17:19.038Z,44.79
2023-03-19T10:20:20.473Z,45.03
2023-03-19T10:23:04.192Z,44.76
2023-03-19T10:25:34.411Z,43.86
2023-03-19T10:28:33.304Z,43.19
2023-03-19T10:31:13.988Z,42.97
2023-03-19T10:33:58.716Z,42.76
2023-03-19T10:36:31.259Z,42.76
2023-03-19T10:38:59.541Z,42.35
2023-03-19T10:41:55.413Z,41.71
2023-03-19T10:44:54.073Z,41.22
2023-03-19T10:47:25.269Z,41.19
2023-03-19T10:49:57.209Z,41.11
2023-03-19T10:52:32.461Z,40.91
2023-03-19T10:55:19.375Z,41.25
2023-03-19T10:57:50.465Z,41.11
2023-03-19T11:00:23.023Z,41.21
2023-03-19T11:02:56.981Z,41.10
2023-03-19T11:05:25.279Z,40.92
2023-03-19T11:08:06.260Z,40.71
2023-03-19T11:10:35.475Z,40.38
2023-03-19T11:13:22.563Z,40.14
2023-03-19T11:15:52.425Z,40.00
2023-03-19T11:18:37.634Z,39.71
2023-03-19T11:21:08.623Z,39.72
2023-03-19T11:23:43.913Z,39.56
2023-03-19T11:26:13.387Z,39.58
2023-03-19T11:28:42.978Z,39.26
2023-03-19T11:31:13.043Z,38.89
2023-03-19T11:33:50.670Z,38.45
2023-03-19T11:36:27.572Z,38.35
2023-03-19T11:39:30.027Z,38.27
2023-03-19T11:42:30.000Z,37.89
2023-03-19T11:45:13.764Z,37.56
2023-03-19T11:47:53.100Z,37.37
2023-03-19T11:50:41.573Z,37.60
2023-03-19T11:53:37.053Z,37.75
2023-03-19T11:56:19.669Z,37.65
2023-03-19T11:59:41.623Z,37.40
2023-03-19T12:02:52.864Z,36.73
2023-03-19T12:05:44.255Z,36.80
2023-03-19T12:08:21.409Z,36.85
2023-03-19T12:10:58.652Z,36.47
2023-03-19T12:13:45.822Z,36.24
2023-03-19T12:16:44.131Z,35.93
2023-03-19T12:19:46.128Z,35.27
2023-03-19T12:22:28.204Z,35.14
2023-03-19T12:25:10.239Z,34.83
2023-03-19T12:27:48.470Z,34.83
2023-03-19T12:30:41.980Z,34.28
2023-03-19T12:33:21.133Z,34.13
2023-03-19T12:35:50.404Z,34.09
2023-03-19T12:38:40.038Z,34.01
2023-03-19T12:41:28.458Z,33.72
2023-03-19T12:44:13.958Z,33.43
2023-03-19T12:46:51.933Z,33.38
2023-03-19T12:49:28.611Z,33.13
2023-03-19T12:52:19.143Z,32.88
2023-03-19T12:55:11.004Z,32.43
2023-03-19T12:58:02.171Z,32.45
2023-03-19T13:00:39.012Z,32.70
2023-03-19T13:03:23.260Z,32.65
2023-03-19T13:06:33.390Z,32.30
2023-03-19T13:09:05.793Z,32.55
2023-03-19T13:11:34.007Z,32.25
2023-03-19T13:14:14.725Z,31.77
2023-03-19T13:17:02.145Z,32.21
2023-03-19T13:19:45.116Z,32.60
2023-03-19T13:22:15.954Z,32.48
2023-03-19T13:24:46.931Z,32.14
2023-03-19T13:27:24.132Z,31.72
2023-03-19T13:30:17.938Z,31.67
2023-03-19T13:33:06.823Z,30.91
2023-03-19T13:35:51.080Z,30.98
2023-03-19T13:38:41.101Z,31.08
2023-03-19T13:41:34.764Z,31.27
2023-03-19T13:44:21.886Z,31.18
2023-03-19T13:46:51.565Z,31.02
2023-03-19T13:49:19.987Z,31.11
2023-03-19T13:51:49.176Z,31.55
2023-03-19T13:54:23.651Z,31.54
2023-03-19T13:57:05.053Z,31.61
2023-03-19T13:59:38.716Z,31.55
2023-03-19T14:02:16.092Z,31.10
2023-03-19T14:04:50.921Z,31.32
2023-03-19T14:07:22.896Z,31.54
2023-03-19T14:09:57.617Z,31.41
2023-03-19T14:12:36.636Z,31.40
2023-03-19T14:15:25.163Z,31.69
2023-03-19T14:18:03.704Z,31.79
2023-03-19T14:20:40.581Z,32.20
2023-03-19T14:23:23.324Z,32.58
2023-03-19T14:26:05.612Z,33.00
2023-03-19T14:29:07.484Z,33.11
2023-03-19T14:32:03.883Z,33.41
2023-03-19T14:34:48.282Z,33.64
2023-03-19T14:37:28.847Z,33.80
2023-03-19T14:40:40.160Z,34.13
2023-03-19T14:43:15.138Z,34.62
2023-03-19T14:46:00.242Z,35.09
2023-03-19T14:48:53.377Z,35.14
2023-03-19T14:51:40.160Z,35.37
2023-03-19T14:54:31.030Z,35.82
2023-03-19T14:57:06.509Z,36.33
2023-03-19T14:59:39.577Z,36.35
2023-03-19T15:02:22.860Z,36.71
2023-03-19T15:04:51.370Z,37.07
2023-03-19T15:07:31.139Z,37.29
2023-03-19T15:10:06.458Z,37.45
2023-03-19T15:12:58.365Z,37.49
2023-03-19T15:15:32.866Z,37.66
2023-03-19T15:18:09.482Z,37.79
2023-03-19T15:20:51.004Z,37.78
2023-03-19T15:23:26.783Z,37.92
2023-03-19T15:26:01.473Z,38.23
2023-03-19T15:28:53.826Z,38.46
2023-03-19T15:31:36.668Z,38.73
2023-03-19T15:34:24.361Z,39.08
2023-03-19T15:37:11.866Z,39.30
2023-03-19T15:39:43.127Z,39.47
2023-03-19T15:42:17.060Z,39.51
2023-03-19T15:44:50.072Z,39.62
2023-03-19T15:47:21.661Z,39.72
2023-03-19T15:49:56.975Z,39.70
2023-03-19T15:52:25.730Z,39.87
2023-03-19T15:55:01.714Z,40.22
2023-03-19T15:57:31.169Z,40.31
2023-03-19T15:59:59.653Z,40.56
2023-03-19T16:02:32.674Z,40.84
2023-03-19T16:07:57.648Z,41.26
2023-03-19T16:10:39.849Z,41.25
2023-03-19T16:13:30.989Z,41.59
2023-03-19T16:16:06.261Z,41.88
2023-03-19T16:18:51.681Z,42.75
2023-03-19T16:21:28.539Z,43.69
2023-03-19T16:24:12.435Z,44.02
2023-03-19T16:26:43.750Z,44.15
2023-03-19T16:29:27.812Z,44.49
2023-03-19T16:32:01.916Z,44.86
2023-03-19T16:34:42.553Z,45.21
2023-03-19T16:37:42.639Z,45.33
2023-03-19T16:40:15.733Z,45.40
2023-03-19T16:42:56.194Z,45.97
2023-03-19T16:45:29.990Z,46.18
2023-03-19T16:47:59.624Z,46.72
2023-03-19T16:50:29.866Z,47.05
2023-03-19T16:52:59.663Z,47.11
2023-03-19T16:55:32.174Z,47.38
2023-03-19T16:58:03.964Z,47.37
2023-03-19T17:00:32.621Z,47.43
2023-03-19T17:03:01.545Z,47.85
2023-03-19T17:05:29.877Z,48.05
2023-03-19T17:07:59.179Z,48.67
2023-03-19T17:10:29.125Z,48.94
2023-03-19T17:12:57.433Z,49.26
2023-03-19T17:15:37.702Z,49.73
2023-03-19T17:18:36.603Z,50.20
2023-03-19T17:21:16.881Z,50.39
2023-03-19T17:23:46.745Z,50.71
2023-03-19T17:26:27.699Z,50.97
2023-03-19T17:28:56.732Z,51.19
2023-03-19T17:31:32.804Z,51.65
2023-03-19T17:34:20.518Z,51.99
2023-03-19T17:36:51.419Z,52.32
2023-03-19T17:39:20.042Z,52.77
2023-03-19T17:41:54.332Z,53.26
2023-03-19T17:44:22.874Z,53.80
2023-03-19T17:46:53.396Z,53.93
2023-03-19T17:49:24.090Z,54.04
2023-03-19T17:51:52.642Z,54.31
2023-03-19T17:54:21.427Z,54.66
2023-03-19T17:56:50.464Z,54.89
2023-03-19T17:59:18.839Z,55.19
2023-03-19T18:01:47.459Z,55.40
2023-03-19T18:04:17.872Z,55.79
2023-03-19T18:06:51.374Z,56.15
2023-03-19T18:09:28.584Z,56.17
2023-03-19T18:11:57.008Z,56.25
2023-03-19T18:14:50.668Z,56.56
2023-03-19T18:17:50.978Z,56.83
2023-03-19T18:20:21.597Z,57.25
2023-03-19T18:22:51.115Z,57.60
2023-03-19T18:25:22.015Z,57.93
2023-03-19T18:27:51.998Z,58.25
2023-03-19T18:30:23.009Z,58.57
2023-03-19T18:32:54.784Z,58.60
2023-03-19T18:35:30.976Z,58.83
2023-03-19T18:37:59.541Z,59.25
2023-03-19T18:40:29.575Z,59.86
2023-03-19T18:43:03.190Z,60.32
2023-03-19T18:45:33.279Z,60.59
2023-03-19T18:48:01.574Z,60.64
2023-03-19T18:50:30.530Z,60.74
2023-03-19T18:52:59.382Z,60.87
2023-03-19T18:55:30.185Z,60.89
2023-03-19T18:58:01.539Z,60.93
2023-03-19T19:00:32.706Z,61.21
2023-03-19T19:03:01.559Z,61.21
2023-03-19T19:05:31.561Z,61.82
2023-03-19T19:08:01.363Z,61.85
2023-03-19T19:10:32.936Z,62.02
2023-03-19T19:13:01.799Z,62.00
2023-03-19T19:15:35.295Z,62.08
2023-03-19T19:18:20.664Z,62.13
2023-03-19T19:20:51.491Z,62.32
2023-03-19T19:23:21.860Z,62.36
2023-03-19T19:25:52.288Z,62.44
2023-03-19T19:28:22.310Z,62.78
2023-03-19T19:30:51.956Z,62.69
2023-03-19T19:33:21.887Z,62.94
2023-03-19T19:35:52.175Z,62.54
2023-03-19T19:38:21.263Z,62.77
2023-03-19T19:40:51.628Z,62.19
2023-03-19T19:43:25.556Z,62.35
2023-03-19T19:45:54.685Z,62.38
2023-03-19T19:48:27.749Z,62.76
2023-03-19T19:50:59.541Z,62.49
2023-03-19T19:53:29.640Z,62.45
2023-03-19T19:56:15.867Z,62.83
2023-03-19T19:58:45.013Z,62.79
2023-03-19T20:01:18.741Z,62.79
2023-03-19T20:03:47.653Z,63.01
2023-03-19T20:06:15.936Z,62.78
2023-03-19T20:08:44.979Z,63.04
2023-03-19T20:11:21.379Z,62.93
2023-03-19T20:13:52.652Z,63.33
2023-03-19T20:16:24.835Z,63.87
2023-03-19T20:18:54.928Z,64.11
2023-03-19T20:21:23.343Z,64.58
2023-03-19T20:23:55.574Z,65.02
2023-03-19T20:26:25.183Z,65.45
2023-03-19T20:28:54.804Z,65.23
2023-03-19T20:31:29.802Z,65.30
2023-03-19T20:33:58.179Z,65.19
2023-03-19T20:36:26.847Z,64.84
2023-03-19T20:38:55.057Z,65.25
2023-03-19T20:41:27.131Z,65.09
2023-03-19T20:43:56.080Z,64.89
2023-03-19T20:46:28.835Z,64.99
2023-03-19T20:48:57.464Z,64.96
2023-03-19T20:51:28.142Z,65.33
2023-03-19T20:53:59.131Z,65.16
2023-03-19T20:56:28.182Z,65.12
2023-03-19T20:58:58.970Z,65.15
2023-03-19T21:01:27.371Z,65.06
2023-03-19T21:03:55.725Z,65.21
2023-03-19T21:06:26.033Z,65.91
2023-03-19T21:08:58.703Z,65.89
2023-03-19T21:11:45.758Z,66.35
2023-03-19T21:14:16.286Z,66.36
2023-03-19T21:16:44.572Z,66.37
2023-03-19T21:19:14.850Z,66.39
2023-03-19T21:21:43.598Z,66.35
2023-03-19T21:24:17.315Z,66.41
2023-03-19T21:26:47.491Z,66.81
2023-03-19T21:29:26.266Z,66.53
2023-03-19T21:31:59.396Z,66.84
2023-03-19T21:34:28.704Z,66.53
2023-03-19T21:36:57.783Z,66.73
2023-03-19T21:39:26.516Z,66.63
2023-03-19T21:41:57.222Z,66.64
2023-03-19T21:44:29.874Z,66.88
2023-03-19T21:46:58.512Z,67.24
2023-03-19T21:49:27.123Z,67.23
2023-03-19T21:51:57.192Z,67.58
2023-03-19T21:54:26.282Z,67.39
2023-03-19T21:56:59.073Z,67.46
2023-03-19T21:59:32.377Z,67.55
2023-03-19T22:02:01.727Z,67.58
2023-03-19T22:04:30.317Z,67.85
2023-03-19T22:06:58.762Z,67.77
2023-03-19T22:09:29.248Z,67.84
2023-03-19T22:12:00.408Z,67.91
2023-03-19T22:14:28.969Z,67.61
2023-03-19T22:16:57.369Z,68.06
2023-03-19T22:19:26.893Z,68.09
2023-03-19T22:21:55.333Z,68.09
2023-03-19T22:24:24.809Z,68.49
2023-03-19T22:26:56.609Z,68.51
2023-03-19T22:29:25.759Z,68.42
2023-03-19T22:31:55.021Z,68.59
2023-03-19T22:34:26.095Z,68.66
2023-03-19T22:36:55.926Z,68.75
2023-03-19T22:39:25.349Z,68.40
2023-03-19T22:41:55.854Z,68.41
2023-03-19T22:44:26.991Z,68.51
2023-03-19T22:46:56.284Z,68.75
2023-03-19T22:49:24.973Z,68.78
2023-03-19T22:51:53.334Z,69.04
2023-03-19T22:54:21.575Z,69.32
2023-03-19T22:56:50.407Z,69.37
2023-03-19T22:59:21.685Z,69.60
2023-03-19T23:01:50.503Z,69.59
2023-03-19T23:04:28.849Z,69.44
2023-03-19T23:07:00.230Z,69.48
2023-03-19T23:09:33.057Z,69.71
2023-03-19T23:12:02.376Z,69.85
2023-03-19T23:14:32.457Z,70.08
2023-03-19T23:17:03.938Z,69.96
2023-03-19T23:19:37.180Z,70.19
2023-03-19T23:22:06.530Z,70.04
2023-03-19T23:24:35.178Z,70.16
2023-03-19T23:27:04.614Z,70.26
2023-03-19T23:29:43.695Z,70.42
2023-03-19T23:32:11.938Z,70.33
2023-03-19T23:34:56.268Z,70.48
2023-03-19T23:37:26.340Z,70.51
2023-03-19T23:39:56.505Z,70.53
2023-03-19T23:42:29.654Z,70.47
2023-03-19T23:44:59.066Z,70.60
2023-03-19T23:47:27.457Z,70.71
2023-03-19T23:49:55.627Z,70.92
2023-03-19T23:52:24.143Z,70.85
2023-03-19T23:54:52.734Z,70.60
2023-03-19T23:57:21.615Z,70.28
2023-03-19T23:59:50.038Z,70.23
